createdAt,value
2022-10-09T00:01:17.269Z,102130.19
2022-10-09T00:03:45.786Z,102139.69
2022-10-09T00:06:15.423Z,102178.56
2022-10-09T00:08:45.260Z,102169.94
2022-10-09T00:11:23.478Z,102127.66
2022-10-09T00:13:51.441Z,102110.41
2022-10-09T00:16:20.183Z,102155.38
2022-10-09T00:18:47.724Z,102144.13
2022-10-09T00:21:20.330Z,102175.28
2022-10-09T00:23:47.205Z,102179.66
2022-10-09T00:26:14.014Z,102097.53
2022-10-09T00:28:40.667Z,102158.94
2022-10-09T00:31:09.387Z,102175.34
2022-10-09T00:33:36.775Z,102176.22
2022-10-09T00:36:04.890Z,102154.59
2022-10-09T00:38:31.388Z,102107.06
2022-10-09T00:40:57.725Z,102162.38
2022-10-09T00:43:49.794Z,102165.84
2022-10-09T00:46:25.235Z,102161.53
2022-10-09T00:49:00.829Z,102161.53
2022-10-09T00:51:29.330Z,102158.91
2022-10-09T00:53:56.433Z,102089.75
2022-10-09T00:56:24.434Z,102156.34
2022-10-09T00:58:53.717Z,102144.28
2022-10-09T01:01:20.312Z,102167.63
2022-10-09T01:03:46.782Z,102166.78
2022-10-09T01:06:27.085Z,102136.50
2022-10-09T01:09:10.218Z,102173.69
2022-10-09T01:11:48.933Z,102075.16
2022-10-09T01:14:28.477Z,102182.41
2022-10-09T01:17:10.649Z,102173.75
2022-10-09T01:19:55.572Z,102167.69
2022-10-09T01:22:47.821Z,102151.25
2022-10-09T01:25:35.532Z,102165.09
2022-10-09T01:28:05.122Z,102143.47
2022-10-09T01:30:32.921Z,102130.50
2022-10-09T01:32:59.436Z,102156.47
2022-10-09T01:35:26.461Z,102140.88
2022-10-09T01:37:54.698Z,102140.03
2022-10-09T01:40:23.071Z,102150.41
2022-10-09T01:42:49.696Z,102068.25
2022-10-09T01:45:16.411Z,102120.16
2022-10-09T01:47:43.269Z,102155.63
2022-10-09T01:50:30.327Z,102153.88
2022-10-09T01:53:04.785Z,102107.16
2022-10-09T01:55:36.935Z,102144.34
2022-10-09T01:58:13.355Z,102114.06
2022-10-09T02:00:44.916Z,102114.09
2022-10-09T02:03:15.144Z,102061.31
2022-10-09T02:05:42.662Z,102131.34
2022-10-09T02:08:12.341Z,102121.81
2022-10-09T02:10:41.996Z,102120.09
2022-10-09T02:13:08.583Z,102122.72
2022-10-09T02:15:43.846Z,102125.31
2022-10-09T02:18:13.149Z,102093.31
2022-10-09T02:20:44.893Z,102121.81
2022-10-09T02:23:11.777Z,102081.19
2022-10-09T02:25:38.785Z,102121.84
2022-10-09T02:28:07.019Z,102121.88
2022-10-09T02:30:43.902Z,102122.72
2022-10-09T02:33:10.250Z,102113.22
2022-10-09T02:35:38.154Z,102114.91
2022-10-09T02:38:04.464Z,102112.28
2022-10-09T02:40:30.806Z,102110.56
2022-10-09T02:42:57.268Z,102108.81
2022-10-09T02:45:23.629Z,102110.56
2022-10-09T02:47:50.050Z,102105.38
2022-10-09T02:50:16.373Z,102112.31
2022-10-09T02:52:42.702Z,102110.56
2022-10-09T02:55:09.236Z,102030.19
2022-10-09T02:57:35.549Z,102102.78
2022-10-09T03:00:01.832Z,102070.81
2022-10-09T03:02:28.277Z,102092.41
2022-10-09T03:04:54.827Z,102107.09
2022-10-09T03:07:21.116Z,102036.22
2022-10-09T03:09:47.490Z,102044.00
2022-10-09T03:12:16.025Z,102050.91
2022-10-09T03:14:42.317Z,102102.75
2022-10-09T03:17:08.608Z,102107.94
2022-10-09T03:19:34.926Z,102062.09
2022-10-09T03:22:01.242Z,102098.41
2022-10-09T03:24:27.574Z,102055.22
2022-10-09T03:26:53.892Z,102009.41
2022-10-09T03:29:20.323Z,102071.66
2022-10-09T03:31:52.209Z,102079.44
2022-10-09T03:34:19.074Z,102104.50
2022-10-09T03:36:45.430Z,102041.41
2022-10-09T03:39:11.772Z,102088.06
2022-10-09T03:41:38.086Z,102089.81
2022-10-09T03:44:04.590Z,102022.38
2022-10-09T03:46:30.980Z,102072.50
2022-10-09T03:48:57.321Z,102040.53
2022-10-09T03:51:23.702Z,102052.63
2022-10-09T03:53:50.057Z,102075.94
2022-10-09T03:56:16.410Z,102076.84
2022-10-09T03:58:42.733Z,102078.56
2022-10-09T04:01:09.438Z,102072.53
2022-10-09T04:03:35.813Z,102024.13
2022-10-09T04:06:02.147Z,102044.88
2022-10-09T04:08:28.455Z,102017.22
2022-10-09T04:10:58.790Z,102075.16
2022-10-09T04:13:25.337Z,101993.91
2022-10-09T04:15:55.928Z,102029.31
2022-10-09T04:18:22.572Z,101967.97
2022-10-09T04:20:51.177Z,102074.28
2022-10-09T04:23:18.705Z,102070.81
2022-10-09T04:25:45.783Z,102076.00
2022-10-09T04:28:12.577Z,102072.53
2022-10-09T04:30:39.078Z,102014.66
2022-10-09T04:33:10.350Z,102044.91
2022-10-09T04:35:49.093Z,102076.91
2022-10-09T04:38:15.488Z,102068.25
2022-10-09T04:40:41.810Z,102058.72
2022-10-09T04:43:08.361Z,101851.38
2022-10-09T04:45:39.568Z,102039.69
2022-10-09T04:48:05.953Z,101963.63
2022-10-09T04:50:32.328Z,102045.75
2022-10-09T04:52:58.708Z,102040.56
2022-10-09T04:55:25.462Z,102041.44
2022-10-09T04:57:51.800Z,101977.47
2022-10-09T05:00:18.238Z,102023.28
2022-10-09T05:02:44.552Z,102025.91
2022-10-09T05:05:10.890Z,102037.13
2022-10-09T05:07:38.430Z,102021.56
2022-10-09T05:10:06.001Z,102042.31
2022-10-09T05:12:32.305Z,102002.56
2022-10-09T05:14:58.609Z,102038.00
2022-10-09T05:17:24.993Z,102038.84
2022-10-09T05:19:51.381Z,102034.53
2022-10-09T05:22:17.697Z,101998.22
2022-10-09T05:24:43.981Z,102006.88
2022-10-09T05:27:10.322Z,102012.03
2022-10-09T05:29:36.651Z,101980.94
2022-10-09T05:32:03.206Z,101993.91
2022-10-09T05:34:29.586Z,102033.63
2022-10-09T05:36:55.911Z,102039.69
2022-10-09T05:39:22.238Z,101866.91
2022-10-09T05:41:48.549Z,102037.09
2022-10-09T05:44:14.872Z,101948.97
2022-10-09T05:46:41.237Z,102037.13
2022-10-09T05:49:07.638Z,102027.59
2022-10-09T05:51:37.157Z,102027.59
2022-10-09T05:54:04.813Z,102031.94
2022-10-09T05:56:33.732Z,101999.06
2022-10-09T05:59:01.675Z,101966.25
2022-10-09T06:01:31.710Z,102028.44
2022-10-09T06:03:59.478Z,102025.84
2022-10-09T06:06:28.976Z,101999.94
2022-10-09T06:08:55.645Z,102031.91
2022-10-09T06:11:23.271Z,101999.06
2022-10-09T06:13:51.088Z,102024.13
2022-10-09T06:16:18.030Z,102023.19
2022-10-09T06:18:49.295Z,101990.34
2022-10-09T06:21:16.700Z,102031.81
2022-10-09T06:23:43.089Z,101992.03
2022-10-09T06:26:12.051Z,101979.97
2022-10-09T06:28:38.736Z,102032.63
2022-10-09T06:31:08.839Z,102033.47
2022-10-09T06:33:37.565Z,102039.50
2022-10-09T06:36:10.221Z,102028.25
2022-10-09T06:38:37.572Z,102031.69
2022-10-09T06:41:06.191Z,102033.41
2022-10-09T06:43:33.169Z,101969.47
2022-10-09T06:46:18.793Z,101850.28
2022-10-09T06:48:45.271Z,102031.50
2022-10-09T06:51:14.781Z,101977.91
2022-10-09T06:53:43.876Z,102024.41
2022-10-09T06:56:11.209Z,101972.59
2022-10-09T06:58:38.677Z,102018.25
2022-10-09T07:01:11.263Z,102021.63
2022-10-09T07:03:38.676Z,102024.16
2022-10-09T07:06:06.991Z,101948.97
2022-10-09T07:08:33.681Z,102017.84
2022-10-09T07:11:00.122Z,102023.78
2022-10-09T07:13:26.461Z,102046.25
2022-10-09T07:15:52.832Z,102023.56
2022-10-09T07:18:19.200Z,102024.31
2022-10-09T07:20:45.559Z,102012.13
2022-10-09T07:23:11.877Z,102017.09
2022-10-09T07:25:38.528Z,102023.00
2022-10-09T07:28:04.890Z,101963.34
2022-10-09T07:30:31.310Z,102014.84
2022-10-09T07:32:57.639Z,102010.28
2022-10-09T07:35:23.946Z,101992.97
2022-10-09T07:37:51.407Z,102011.78
2022-10-09T07:40:17.766Z,102009.97
2022-10-09T07:42:44.061Z,102018.47
2022-10-09T07:45:10.556Z,102014.78
2022-10-09T07:47:36.881Z,102007.56
2022-10-09T07:50:03.385Z,101950.50
2022-10-09T07:52:29.797Z,101950.38
2022-10-09T07:54:56.109Z,102006.97
2022-10-09T07:57:22.451Z,101952.34
2022-10-09T07:59:48.782Z,101986.53
2022-10-09T08:02:15.138Z,101996.66
2022-10-09T08:04:41.468Z,101970.81
2022-10-09T08:07:07.786Z,102003.31
2022-10-09T08:09:34.101Z,102001.22
2022-10-09T08:12:00.427Z,102000.13
2022-10-09T08:14:26.816Z,102003.25
2022-10-09T08:16:53.333Z,102002.97
2022-10-09T08:19:19.664Z,101989.88
2022-10-09T08:21:46.125Z,101971.59
2022-10-09T08:24:13.069Z,102001.50
2022-10-09T08:26:39.381Z,102003.00
2022-10-09T08:29:08.252Z,101927.88
2022-10-09T08:31:34.701Z,101999.59
2022-10-09T08:34:02.922Z,101999.22
2022-10-09T08:36:30.277Z,101991.00
2022-10-09T08:38:56.607Z,101992.34
2022-10-09T08:41:28.706Z,101982.38
2022-10-09T08:44:20.307Z,101973.59
2022-10-09T08:46:57.248Z,101975.72
2022-10-09T08:49:26.426Z,101856.84
2022-10-09T08:51:56.418Z,101980.97
2022-10-09T08:54:41.126Z,101975.19
2022-10-09T08:57:16.421Z,101976.72
2022-10-09T08:59:44.061Z,101971.66
2022-10-09T09:02:41.105Z,101972.81
2022-10-09T09:05:19.206Z,101961.09
2022-10-09T09:07:59.968Z,101961.59
2022-10-09T09:10:33.468Z,101956.06
2022-10-09T09:13:37.705Z,101955.06
2022-10-09T09:16:04.030Z,101963.09
2022-10-09T09:19:07.711Z,101959.31
2022-10-09T09:21:47.267Z,101905.56
2022-10-09T09:24:42.134Z,101923.75
2022-10-09T09:27:16.001Z,101885.56
2022-10-09T09:30:01.664Z,101885.63
2022-10-09T09:32:30.805Z,101924.03
2022-10-09T09:35:08.081Z,101935.91
2022-10-09T09:37:34.599Z,101929.25
2022-10-09T09:42:47.649Z,101925.34
2022-10-09T09:45:21.755Z,101918.03
2022-10-09T09:48:13.063Z,101919.78
2022-10-09T09:50:50.568Z,101784.66
2022-10-09T09:53:34.472Z,101911.75
2022-10-09T09:56:01.159Z,101829.22
2022-10-09T09:58:34.709Z,101821.78
2022-10-09T10:01:03.175Z,101898.03
2022-10-09T10:03:31.002Z,101898.34
2022-10-09T10:05:57.597Z,101875.66
2022-10-09T10:08:28.037Z,101890.59
2022-10-09T10:10:58.690Z,101825.47
2022-10-09T10:13:33.668Z,101881.53
2022-10-09T10:16:00.438Z,101884.38
2022-10-09T10:18:32.281Z,101866.28
2022-10-09T10:21:12.838Z,101799.50
2022-10-09T10:23:53.299Z,101779.25
2022-10-09T10:26:28.855Z,101860.56
2022-10-09T10:29:09.675Z,101860.97
2022-10-09T10:31:45.707Z,101829.91
2022-10-09T10:34:23.042Z,101847.22
2022-10-09T10:37:01.066Z,101752.25
2022-10-09T10:40:07.349Z,101842.63
2022-10-09T10:42:57.344Z,101682.09
2022-10-09T10:45:43.982Z,101830.84
2022-10-09T10:48:19.541Z,101765.44
2022-10-09T10:51:01.778Z,101810.59
2022-10-09T10:53:40.267Z,101825.22
2022-10-09T10:56:14.501Z,101825.19
2022-10-09T10:59:04.634Z,101815.38
2022-10-09T11:01:45.567Z,101809.13
2022-10-09T11:04:33.606Z,101806.75
2022-10-09T11:07:22.510Z,101760.25
2022-10-09T11:10:18.299Z,101733.44
2022-10-09T11:12:48.452Z,101797.22
2022-10-09T11:15:31.370Z,101752.22
2022-10-09T11:18:24.278Z,101782.19
2022-10-09T11:21:02.699Z,101785.22
2022-10-09T11:23:43.054Z,101725.06
2022-10-09T11:26:15.104Z,101771.41
2022-10-09T11:29:04.712Z,101636.81
2022-10-09T11:31:40.147Z,101684.84
2022-10-09T11:34:14.198Z,101682.31
2022-10-09T11:36:43.054Z,101753.78
2022-10-09T11:39:19.668Z,101752.66
2022-10-09T11:41:48.068Z,101647.53
2022-10-09T11:44:26.289Z,101688.25
2022-10-09T11:47:11.415Z,101736.00
2022-10-09T11:49:55.841Z,101737.91
2022-10-09T11:52:39.377Z,101666.81
2022-10-09T11:55:18.263Z,101668.41
2022-10-09T11:57:44.746Z,101619.22
2022-10-09T12:00:11.565Z,101709.97
2022-10-09T12:02:38.701Z,101718.22
2022-10-09T12:05:34.884Z,101703.72
2022-10-09T12:08:15.456Z,101712.78
2022-10-09T12:10:54.884Z,101695.53
2022-10-09T12:13:58.230Z,101555.91
2022-10-09T12:16:39.006Z,101680.72
2022-10-09T12:19:34.615Z,101685.28
2022-10-09T12:22:06.522Z,101673.88
2022-10-09T12:24:43.530Z,101675.09
2022-10-09T12:27:20.933Z,101675.25
2022-10-09T12:29:54.718Z,101667.91
2022-10-09T12:32:31.310Z,101656.28
2022-10-09T12:34:58.100Z,101669.13
2022-10-09T12:37:34.962Z,101641.34
2022-10-09T12:40:22.156Z,101635.47
2022-10-09T12:42:52.263Z,101628.16
2022-10-09T12:45:29.845Z,101581.75
2022-10-09T12:47:59.267Z,101652.41
2022-10-09T12:50:33.259Z,101627.34
2022-10-09T12:53:05.748Z,101642.78
2022-10-09T12:55:40.651Z,101551.47
2022-10-09T12:58:26.935Z,101621.09
2022-10-09T13:00:56.534Z,101556.59
2022-10-09T13:03:33.006Z,101546.91
2022-10-09T13:06:00.204Z,101560.91
2022-10-09T13:08:38.355Z,101592.44
2022-10-09T13:11:29.032Z,101617.38
2022-10-09T13:13:55.950Z,101622.69
2022-10-09T13:16:24.318Z,101579.97
2022-10-09T13:19:01.213Z,101533.66
2022-10-09T13:21:35.163Z,101604.75
2022-10-09T13:24:13.203Z,101606.56
2022-10-09T13:26:42.423Z,101602.25
2022-10-09T13:29:08.908Z,101602.94
2022-10-09T13:31:36.890Z,101604.03
2022-10-09T13:34:11.980Z,101612.19
2022-10-09T13:36:38.431Z,101516.00
2022-10-09T13:39:05.303Z,101600.97
2022-10-09T13:41:32.578Z,101553.97
2022-10-09T13:43:59.092Z,101536.19
2022-10-09T13:46:25.428Z,101509.44
2022-10-09T13:48:51.768Z,101525.81
2022-10-09T13:51:18.141Z,101530.47
2022-10-09T13:53:44.465Z,101564.28
2022-10-09T13:56:10.924Z,101540.47
2022-10-09T13:58:37.276Z,101577.03
2022-10-09T14:01:04.029Z,101464.84
2022-10-09T14:03:30.441Z,101491.94
2022-10-09T14:06:01.230Z,101543.56
2022-10-09T14:08:27.537Z,101511.09
2022-10-09T14:10:54.338Z,101490.63
2022-10-09T14:13:21.730Z,101556.09
2022-10-09T14:15:48.390Z,101542.16
2022-10-09T14:18:14.759Z,101554.78
2022-10-09T14:20:41.120Z,101415.28
2022-10-09T14:23:07.432Z,101515.34
2022-10-09T14:25:34.452Z,101524.50
2022-10-09T14:28:00.813Z,101547.66
2022-10-09T14:30:27.512Z,101372.13
2022-10-09T14:32:55.199Z,101437.97
2022-10-09T14:35:21.884Z,101524.09
2022-10-09T14:37:48.281Z,101489.38
2022-10-09T14:40:14.952Z,101485.88
2022-10-09T14:42:41.532Z,101487.59
2022-10-09T14:45:09.049Z,101453.03
2022-10-09T14:47:35.590Z,101521.53
2022-10-09T14:50:01.939Z,101462.66
2022-10-09T14:52:28.276Z,101485.06
2022-10-09T14:54:54.589Z,101420.97
2022-10-09T14:57:20.895Z,101435.78
2022-10-09T14:59:47.196Z,101462.16
2022-10-09T15:02:15.450Z,101504.22
2022-10-09T15:04:42.001Z,101416.63
2022-10-09T15:07:08.351Z,101481.94
2022-10-09T15:09:34.655Z,101421.38
2022-10-09T15:12:00.965Z,101439.72
2022-10-09T15:14:27.333Z,101434.53
2022-10-09T15:16:53.670Z,101417.84
2022-10-09T15:19:20.327Z,101415.94
2022-10-09T15:21:46.764Z,101396.06
2022-10-09T15:24:13.289Z,101427.16
2022-10-09T15:26:39.736Z,101485.78
2022-10-09T15:29:10.366Z,101451.94
2022-10-09T15:31:39.337Z,101484.66
2022-10-09T15:34:07.646Z,101488.53
2022-10-09T15:36:37.796Z,101479.91
2022-10-09T15:39:08.730Z,101481.25
2022-10-09T15:41:37.475Z,101384.91
2022-10-09T15:44:22.822Z,101453.34
2022-10-09T15:46:49.678Z,101468.31
2022-10-09T15:49:16.419Z,101402.16
2022-10-09T15:51:42.917Z,101411.59
2022-10-09T15:54:11.228Z,101419.91
2022-10-09T15:56:40.138Z,101448.84
2022-10-09T15:59:07.338Z,101434.38
2022-10-09T16:01:33.753Z,101444.53
2022-10-09T16:04:00.108Z,101438.84
2022-10-09T16:06:26.478Z,101425.72
2022-10-09T16:08:56.758Z,101423.34
2022-10-09T16:11:26.264Z,101336.38
2022-10-09T16:13:53.962Z,101373.03
2022-10-09T16:16:23.430Z,101264.59
2022-10-09T16:18:54.945Z,101452.13
2022-10-09T16:21:26.872Z,101447.25
2022-10-09T16:23:58.442Z,101363.06
2022-10-09T16:26:26.627Z,101464.81
2022-10-09T16:28:53.072Z,101394.66
2022-10-09T16:31:25.921Z,101429.81
2022-10-09T16:33:52.813Z,101369.78
2022-10-09T16:36:20.460Z,101393.38
2022-10-09T16:38:47.323Z,101436.97
2022-10-09T16:41:17.716Z,101431.44
2022-10-09T16:43:45.869Z,101393.59
2022-10-09T16:46:17.529Z,101444.63
2022-10-09T16:48:44.053Z,101396.88
2022-10-09T16:51:12.857Z,101431.13
2022-10-09T16:53:40.191Z,101453.00
2022-10-09T16:56:11.835Z,101290.28
2022-10-09T16:58:39.364Z,101445.69
2022-10-09T17:01:09.875Z,101447.00
2022-10-09T17:03:40.226Z,101425.41
2022-10-09T17:06:11.740Z,101355.06
2022-10-09T17:08:38.310Z,101369.47
2022-10-09T17:11:09.340Z,101385.81
2022-10-09T17:13:36.507Z,101410.91
2022-10-09T17:16:07.726Z,101287.41
2022-10-09T17:18:35.509Z,101406.31
2022-10-09T17:21:06.371Z,101347.88
2022-10-09T17:23:33.316Z,101383.13
2022-10-09T17:26:04.151Z,101323.13
2022-10-09T17:28:30.604Z,101416.09
2022-10-09T17:30:57.254Z,101446.84
2022-10-09T17:33:23.558Z,101446.56
2022-10-09T17:35:49.864Z,101375.00
2022-10-09T17:38:18.563Z,101440.19
2022-10-09T17:40:44.905Z,101396.75
2022-10-09T17:43:11.290Z,101407.69
2022-10-09T17:45:39.472Z,101460.03
2022-10-09T17:48:06.908Z,101459.75
2022-10-09T17:50:33.407Z,101457.31
2022-10-09T17:53:00.492Z,101400.41
2022-10-09T17:55:27.539Z,101452.63
2022-10-09T17:57:55.082Z,101430.72
2022-10-09T18:00:22.142Z,101437.72
2022-10-09T18:02:49.145Z,101299.66
2022-10-09T18:05:15.468Z,101366.34
2022-10-09T18:07:41.839Z,101347.53
2022-10-09T18:10:08.869Z,101373.31
2022-10-09T18:12:35.185Z,101329.59
2022-10-09T18:15:02.782Z,101396.66
2022-10-09T18:17:31.606Z,101377.28
2022-10-09T18:19:58.009Z,101340.59
2022-10-09T18:22:24.322Z,101332.03
2022-10-09T18:24:50.712Z,101206.97
2022-10-09T18:27:17.140Z,101253.88
2022-10-09T18:29:43.498Z,101293.47
2022-10-09T18:32:09.814Z,101373.19
2022-10-09T18:34:39.373Z,101433.06
2022-10-09T18:37:06.591Z,101406.22
2022-10-09T18:39:33.321Z,101356.94
2022-10-09T18:42:02.004Z,101407.41
2022-10-09T18:44:39.958Z,101310.09
2022-10-09T18:47:11.686Z,101274.06
2022-10-09T18:49:43.329Z,101446.75
2022-10-09T18:52:11.233Z,101353.53
2022-10-09T18:54:39.024Z,101324.69
2022-10-09T18:57:05.934Z,101284.59
2022-10-09T18:59:35.658Z,101352.59
2022-10-09T19:02:02.013Z,101375.84
2022-10-09T19:04:28.475Z,101398.06
2022-10-09T19:06:55.112Z,101381.22
2022-10-09T19:09:23.921Z,101314.09
2022-10-09T19:11:52.517Z,101174.38
2022-10-09T19:14:19.155Z,101427.38
2022-10-09T19:16:45.589Z,101278.88
2022-10-09T19:19:12.130Z,101393.69
2022-10-09T19:21:44.910Z,101318.22
2022-10-09T19:24:12.225Z,101420.09
2022-10-09T19:26:40.095Z,101362.31
2022-10-09T19:29:07.656Z,101265.72
2022-10-09T19:31:35.474Z,101317.53
2022-10-09T19:34:04.068Z,101428.75
2022-10-09T19:36:34.993Z,101373.59
2022-10-09T19:39:01.990Z,101375.69
2022-10-09T19:41:28.561Z,101347.03
2022-10-09T19:43:54.878Z,101378.13
2022-10-09T19:46:22.607Z,101373.84
2022-10-09T19:48:52.702Z,101207.25
2022-10-09T19:51:25.545Z,101422.13
2022-10-09T19:53:53.395Z,101240.09
2022-10-09T19:56:22.928Z,101407.63
2022-10-09T19:58:49.890Z,101363.34
2022-10-09T20:01:21.608Z,101409.31
2022-10-09T20:03:53.423Z,101404.31
2022-10-09T20:06:19.856Z,101273.00
2022-10-09T20:08:48.706Z,101202.28
2022-10-09T20:11:15.047Z,101402.13
2022-10-09T20:13:42.945Z,101332.03
2022-10-09T20:16:12.228Z,101284.97
2022-10-09T20:18:42.505Z,101347.47
2022-10-09T20:21:13.254Z,101395.47
2022-10-09T20:23:41.314Z,101230.16
2022-10-09T20:26:11.617Z,101350.25
2022-10-09T20:28:38.703Z,101317.69
2022-10-09T20:31:07.830Z,101357.25
2022-10-09T20:33:35.523Z,101233.03
2022-10-09T20:36:02.913Z,101383.44
2022-10-09T20:38:29.323Z,101294.81
2022-10-09T20:41:03.782Z,101386.97
2022-10-09T20:43:30.273Z,101280.22
2022-10-09T20:45:56.597Z,101142.88
2022-10-09T20:48:23.061Z,101246.53
2022-10-09T20:50:49.394Z,101364.66
2022-10-09T20:53:16.707Z,101382.75
2022-10-09T20:55:43.162Z,101298.44
2022-10-09T20:58:09.496Z,101172.16
2022-10-09T21:00:41.400Z,101192.56
2022-10-09T21:03:12.171Z,101384.38
2022-10-09T21:05:43.301Z,101323.63
2022-10-09T21:08:09.969Z,101328.47
2022-10-09T21:10:42.873Z,101331.72
2022-10-09T21:13:09.496Z,101335.41
2022-10-09T21:15:43.587Z,101178.16
2022-10-09T21:18:10.863Z,101273.66
2022-10-09T21:20:39.041Z,101136.22
2022-10-09T21:23:05.886Z,101276.47
2022-10-09T21:25:32.941Z,101368.47
2022-10-09T21:27:59.276Z,101273.72
2022-10-09T21:30:26.229Z,101198.28
2022-10-09T21:32:52.899Z,101378.03
2022-10-09T21:35:19.513Z,101306.03
2022-10-09T21:37:46.021Z,101225.63
2022-10-09T21:40:12.374Z,101334.28
2022-10-09T21:42:38.765Z,100947.56
2022-10-09T21:45:05.635Z,101351.91
2022-10-09T21:47:32.017Z,101354.50
2022-10-09T21:49:58.362Z,101270.44
2022-10-09T21:52:24.697Z,101250.53
2022-10-09T21:54:51.142Z,101190.56
2022-10-09T21:57:17.489Z,101189.28
2022-10-09T21:59:43.851Z,101091.88
2022-10-09T22:02:10.184Z,101269.47
2022-10-09T22:04:36.680Z,101169.56
2022-10-09T22:07:05.272Z,101303.75
2022-10-09T22:09:31.648Z,101223.00
2022-10-09T22:11:58.087Z,101282.16
2022-10-09T22:14:24.510Z,101274.41
2022-10-09T22:16:50.868Z,101258.19
2022-10-09T22:19:18.649Z,101249.09
2022-10-09T22:21:45.004Z,101339.00
2022-10-09T22:24:12.952Z,101200.41
2022-10-09T22:26:39.842Z,101036.78
2022-10-09T22:29:06.421Z,101206.09
2022-10-09T22:31:32.853Z,101235.22
2022-10-09T22:34:01.442Z,101131.94
2022-10-09T22:36:30.403Z,101273.84
2022-10-09T22:38:58.674Z,101304.88
2022-10-09T22:41:28.852Z,101118.72
2022-10-09T22:44:00.338Z,101247.47
2022-10-09T22:46:29.246Z,101296.88
2022-10-09T22:48:55.729Z,101120.06
2022-10-09T22:51:23.940Z,101303.34
2022-10-09T22:53:50.374Z,101293.19
2022-10-09T22:56:38.538Z,101295.16
2022-10-09T22:59:06.999Z,101214.00
2022-10-09T23:01:40.264Z,101228.00
2022-10-09T23:04:10.418Z,101306.06
2022-10-09T23:06:37.200Z,101226.25
2022-10-09T23:09:05.914Z,101248.88
2022-10-09T23:11:32.332Z,101180.28
2022-10-09T23:13:59.962Z,101147.38
2022-10-09T23:16:28.630Z,101100.09
2022-10-09T23:18:57.776Z,101233.56
2022-10-09T23:21:24.599Z,101122.63
2022-10-09T23:23:51.913Z,101218.09
2022-10-09T23:26:21.290Z,101230.91
2022-10-09T23:28:56.581Z,101009.38
2022-10-09T23:31:23.789Z,101046.19
2022-10-09T23:33:50.318Z,101260.13
2022-10-09T23:36:20.211Z,101214.06
2022-10-09T23:38:47.094Z,101183.31
2022-10-09T23:41:16.370Z,101217.38
2022-10-09T23:43:44.134Z,101184.16
2022-10-09T23:46:14.365Z,101251.75
2022-10-09T23:48:41.433Z,101121.09
2022-10-09T23:51:10.832Z,101166.22
2022-10-09T23:53:37.705Z,101164.50
2022-10-09T23:56:25.419Z,101201.38
2022-10-09T23:58:53.203Z,101161.75
